Etusivu
METAR-TAF:

METAR-TAF

Lentoasemat :

Bodø, Norja

Bodøn lentoasema

Leveyspiiri: 67-16N, Pituuspiiri: 014-22E, korkeus merenpinnasta: 1 m

Tämänhetkinen sää

Tämä raportti tehtiin 33 minuuttia sitten, kello 13.50 UTC
Tuuli 25 kn idästä
Lämpötila -8°C
Kosteus 67%
Ilmanpaine 1010 hPa
Näkyvyys 10 km tai enemmän
Muutamia pilviä 4000 ft:n korkeudessa

METAR: ENBO 221350Z 08025KT 9999 FEW040 M08/M13 Q1010 NOSIG

Aika: 15:23 (14:23 UTC)

Sääennuste

Ennuste voimassa 22. päivästä klo 12 UTC - 23. päivään klo 12 UTC
Tuuli 25 kn idästä
Näkyvyys 10 km tai enemmän
ei pilviä alle 1500 m:ssä eikä cumulonimbus-pilviä

TAF: ENBO 2212/2312 09025KT CAVOK

Säähavainnot ja -ennusteet yli 4000 lentoasemalta (METAR- ja TAF-raportit).

Käytössä olevat sääasemat on merkitty karttaan keltaisilla ja punaisilla pisteillä.

Aseta hiiri pisteen päälle nähdäksesi sääaseman nimen.

Klikkaa sitten nähdäksesi säähavainnot ja -ennusteet.

Kartan vaihtaminen: klikkaa mustalla rastilla varustettuja vihreitä pisteitä, niin voit zoomata sisään; viivalla varustettua vihreää pistettä, niin voit zoomata ulos tai vihreitä nuolia, niin pääset viereisille kartoille.


METAR-TAF: